Slickville, Pennsylvania
Current Conditions -  °F | °C
As of 11:53 PM on Wednesday 22 Oct 2014 (Local Time) from KAGC Reporting Station
Overcast Overcast  
Wind Chill: 43°   Ceiling: 1800
Heat Index: 47°   Visibility: 10mi
Dew Point: 38°   Wind: 9mph
Humidity: 71%   Direction: 350°N
Pressure: 30.15"   Gusts: 18mph
Location:  40.46°N, 79.52°W
Report Text: KAGC 230353Z AUTO 35008G16KT 10SM OVC018 08/03 A3015 RMK AO2 SLP217 T00830033 TSNO
Loading
Personal Weather Stations






























Interactive Weather Map
Tropical Storm Tracking
New forecast layout! Learn more

10-Day Weather Forecast

Advertisements
Track Severe Weather on mobile